sensor_id;sensor_type;location;lat;lon;timestamp;temperature;humidity
3416;DHT22;1721;51.238;9.562;2023-07-31T00:00:32;17.80;95.70
3416;DHT22;1721;51.238;9.562;2023-07-31T00:02:58;17.80;95.40
3416;DHT22;1721;51.238;9.562;2023-07-31T00:05:23;17.80;95.70
3416;DHT22;1721;51.238;9.562;2023-07-31T00:07:49;17.90;95.30
3416;DHT22;1721;51.238;9.562;2023-07-31T00:10:14;17.70;95.50
3416;DHT22;1721;51.238;9.562;2023-07-31T00:12:43;17.80;96.20
3416;DHT22;1721;51.238;9.562;2023-07-31T00:15:09;17.80;95.70
3416;DHT22;1721;51.238;9.562;2023-07-31T00:17:35;17.70;95.70
3416;DHT22;1721;51.238;9.562;2023-07-31T00:20:01;17.80;95.80
3416;DHT22;1721;51.238;9.562;2023-07-31T00:22:27;17.70;95.90
3416;DHT22;1721;51.238;9.562;2023-07-31T00:24:52;17.70;95.90
3416;DHT22;1721;51.238;9.562;2023-07-31T00:27:18;17.80;95.90
3416;DHT22;1721;51.238;9.562;2023-07-31T00:29:44;17.90;95.80
3416;DHT22;1721;51.238;9.562;2023-07-31T00:32:09;18.00;95.50
3416;DHT22;1721;51.238;9.562;2023-07-31T00:34:35;17.90;95.70
3416;DHT22;1721;51.238;9.562;2023-07-31T00:37:00;18.00;95.80
3416;DHT22;1721;51.238;9.562;2023-07-31T00:39:26;18.10;95.50
3416;DHT22;1721;51.238;9.562;2023-07-31T00:41:51;18.00;95.50
3416;DHT22;1721;51.238;9.562;2023-07-31T00:44:17;18.00;95.60
3416;DHT22;1721;51.238;9.562;2023-07-31T00:46:42;18.00;95.40
3416;DHT22;1721;51.238;9.562;2023-07-31T00:49:08;18.00;95.50
3416;DHT22;1721;51.238;9.562;2023-07-31T00:51:34;18.00;95.30
3416;DHT22;1721;51.238;9.562;2023-07-31T00:54:00;18.00;95.40
3416;DHT22;1721;51.238;9.562;2023-07-31T00:56:26;18.10;95.50
3416;DHT22;1721;51.238;9.562;2023-07-31T00:58:53;18.10;95.40
3416;DHT22;1721;51.238;9.562;2023-07-31T01:01:18;18.00;95.40
3416;DHT22;1721;51.238;9.562;2023-07-31T01:03:44;18.00;95.30
3416;DHT22;1721;51.238;9.562;2023-07-31T01:06:15;18.00;95.60
3416;DHT22;1721;51.238;9.562;2023-07-31T01:09:21;18.00;95.40
3416;DHT22;1721;51.238;9.562;2023-07-31T01:11:46;18.00;95.40
3416;DHT22;1721;51.238;9.562;2023-07-31T01:14:12;18.00;95.00
3416;DHT22;1721;51.238;9.562;2023-07-31T01:16:37;18.00;95.40
3416;DHT22;1721;51.238;9.562;2023-07-31T01:19:03;18.00;95.20
3416;DHT22;1721;51.238;9.562;2023-07-31T01:24:43;17.90;95.40
3416;DHT22;1721;51.238;9.562;2023-07-31T01:27:12;17.80;95.30
3416;DHT22;1721;51.238;9.562;2023-07-31T01:29:52;17.80;95.50
3416;DHT22;1721;51.238;9.562;2023-07-31T01:32:19;17.90;95.20
3416;DHT22;1721;51.238;9.562;2023-07-31T01:34:46;17.80;95.50
3416;DHT22;1721;51.238;9.562;2023-07-31T01:37:12;17.90;95.50
3416;DHT22;1721;51.238;9.562;2023-07-31T01:39:37;17.90;95.30
3416;DHT22;1721;51.238;9.562;2023-07-31T01:42:03;17.90;95.20
3416;DHT22;1721;51.238;9.562;2023-07-31T01:44:28;17.90;95.30
3416;DHT22;1721;51.238;9.562;2023-07-31T01:46:54;17.90;95.80
3416;DHT22;1721;51.238;9.562;2023-07-31T01:49:19;18.00;95.20
3416;DHT22;1721;51.238;9.562;2023-07-31T01:51:45;18.10;95.20
3416;DHT22;1721;51.238;9.562;2023-07-31T01:54:10;18.00;95.10
3416;DHT22;1721;51.238;9.562;2023-07-31T01:56:36;18.10;95.30
3416;DHT22;1721;51.238;9.562;2023-07-31T01:59:02;18.30;95.20
3416;DHT22;1721;51.238;9.562;2023-07-31T02:01:27;18.10;95.00
3416;DHT22;1721;51.238;9.562;2023-07-31T02:03:53;18.10;95.40
3416;DHT22;1721;51.238;9.562;2023-07-31T02:06:19;18.20;95.50
3416;DHT22;1721;51.238;9.562;2023-07-31T02:08:45;18.10;95.50
3416;DHT22;1721;51.238;9.562;2023-07-31T02:11:10;18.10;95.50
3416;DHT22;1721;51.238;9.562;2023-07-31T02:13:36;18.10;95.60
3416;DHT22;1721;51.238;9.562;2023-07-31T02:16:01;18.00;95.80
3416;DHT22;1721;51.238;9.562;2023-07-31T02:18:27;18.10;95.80
3416;DHT22;1721;51.238;9.562;2023-07-31T02:20:52;18.10;96.10
3416;DHT22;1721;51.238;9.562;2023-07-31T02:23:18;18.00;96.30
3416;DHT22;1721;51.238;9.562;2023-07-31T02:25:45;18.10;96.30
3416;DHT22;1721;51.238;9.562;2023-07-31T02:28:11;18.20;96.30
3416;DHT22;1721;51.238;9.562;2023-07-31T02:30:36;18.20;96.00
3416;DHT22;1721;51.238;9.562;2023-07-31T02:33:02;18.20;96.20
3416;DHT22;1721;51.238;9.562;2023-07-31T02:35:27;18.30;96.30
3416;DHT22;1721;51.238;9.562;2023-07-31T02:37:53;18.30;96.50
3416;DHT22;1721;51.238;9.562;2023-07-31T02:40:18;18.20;96.40
3416;DHT22;1721;51.238;9.562;2023-07-31T02:42:44;18.30;96.40
3416;DHT22;1721;51.238;9.562;2023-07-31T02:45:10;18.10;96.50
3416;DHT22;1721;51.238;9.562;2023-07-31T02:47:35;18.10;96.50
3416;DHT22;1721;51.238;9.562;2023-07-31T02:50:02;18.00;96.90
3416;DHT22;1721;51.238;9.562;2023-07-31T02:52:28;17.90;97.30
3416;DHT22;1721;51.238;9.562;2023-07-31T02:54:53;18.00;97.50
3416;DHT22;1721;51.238;9.562;2023-07-31T02:57:19;18.10;97.60
3416;DHT22;1721;51.238;9.562;2023-07-31T02:59:44;18.20;97.60
3416;DHT22;1721;51.238;9.562;2023-07-31T03:02:10;18.20;97.60
3416;DHT22;1721;51.238;9.562;2023-07-31T03:04:36;18.30;97.40
3416;DHT22;1721;51.238;9.562;2023-07-31T03:07:02;18.10;97.50
3416;DHT22;1721;51.238;9.562;2023-07-31T03:09:27;18.10;97.50
3416;DHT22;1721;51.238;9.562;2023-07-31T03:11:53;18.20;97.70
3416;DHT22;1721;51.238;9.562;2023-07-31T03:14:18;18.20;97.40
3416;DHT22;1721;51.238;9.562;2023-07-31T03:16:44;18.10;97.60
3416;DHT22;1721;51.238;9.562;2023-07-31T03:19:09;18.20;97.40
3416;DHT22;1721;51.238;9.562;2023-07-31T03:21:35;18.20;97.20
3416;DHT22;1721;51.238;9.562;2023-07-31T03:24:00;18.20;97.10
3416;DHT22;1721;51.238;9.562;2023-07-31T03:26:26;18.20;97.30
3416;DHT22;1721;51.238;9.562;2023-07-31T03:28:51;18.30;97.20
3416;DHT22;1721;51.238;9.562;2023-07-31T03:31:17;18.30;97.00
3416;DHT22;1721;51.238;9.562;2023-07-31T03:33:42;18.10;96.90
3416;DHT22;1721;51.238;9.562;2023-07-31T03:36:08;18.10;96.80
3416;DHT22;1721;51.238;9.562;2023-07-31T03:38:34;18.10;97.00
3416;DHT22;1721;51.238;9.562;2023-07-31T03:41:00;18.00;96.90
3416;DHT22;1721;51.238;9.562;2023-07-31T03:43:25;18.00;97.30
3416;DHT22;1721;51.238;9.562;2023-07-31T03:45:51;18.10;97.20
3416;DHT22;1721;51.238;9.562;2023-07-31T03:48:16;18.20;97.10
3416;DHT22;1721;51.238;9.562;2023-07-31T03:50:42;18.20;97.00
3416;DHT22;1721;51.238;9.562;2023-07-31T03:53:08;18.10;96.90
3416;DHT22;1721;51.238;9.562;2023-07-31T03:55:33;18.10;97.00
3416;DHT22;1721;51.238;9.562;2023-07-31T03:57:59;18.10;96.90
3416;DHT22;1721;51.238;9.562;2023-07-31T04:00:26;18.00;96.90
3416;DHT22;1721;51.238;9.562;2023-07-31T04:02:52;17.90;96.80
3416;DHT22;1721;51.238;9.562;2023-07-31T04:05:17;17.90;97.10
3416;DHT22;1721;51.238;9.562;2023-07-31T04:07:43;18.00;97.00
3416;DHT22;1721;51.238;9.562;2023-07-31T04:10:09;18.10;97.00
3416;DHT22;1721;51.238;9.562;2023-07-31T04:12:35;18.10;96.90
3416;DHT22;1721;51.238;9.562;2023-07-31T04:15:00;18.10;96.90
3416;DHT22;1721;51.238;9.562;2023-07-31T04:17:26;18.10;96.30
3416;DHT22;1721;51.238;9.562;2023-07-31T04:19:51;18.10;96.50
3416;DHT22;1721;51.238;9.562;2023-07-31T04:22:17;18.10;96.30
3416;DHT22;1721;51.238;9.562;2023-07-31T04:24:42;18.10;96.10
3416;DHT22;1721;51.238;9.562;2023-07-31T04:27:08;18.10;96.10
3416;DHT22;1721;51.238;9.562;2023-07-31T04:29:33;18.10;96.20
3416;DHT22;1721;51.238;9.562;2023-07-31T04:31:59;18.10;95.80
3416;DHT22;1721;51.238;9.562;2023-07-31T04:34:25;18.20;96.00
3416;DHT22;1721;51.238;9.562;2023-07-31T04:36:50;18.20;95.80
3416;DHT22;1721;51.238;9.562;2023-07-31T04:39:16;18.20;95.80
3416;DHT22;1721;51.238;9.562;2023-07-31T04:41:41;18.30;96.00
3416;DHT22;1721;51.238;9.562;2023-07-31T04:44:07;18.40;95.80
3416;DHT22;1721;51.238;9.562;2023-07-31T04:46:32;18.30;95.40
3416;DHT22;1721;51.238;9.562;2023-07-31T04:48:58;18.40;95.70
3416;DHT22;1721;51.238;9.562;2023-07-31T04:51:23;18.50;95.70
3416;DHT22;1721;51.238;9.562;2023-07-31T04:53:49;18.50;95.40
3416;DHT22;1721;51.238;9.562;2023-07-31T04:56:15;18.50;95.50
3416;DHT22;1721;51.238;9.562;2023-07-31T04:58:41;18.40;95.40
3416;DHT22;1721;51.238;9.562;2023-07-31T05:01:06;18.40;95.60
3416;DHT22;1721;51.238;9.562;2023-07-31T05:03:32;18.50;95.70
3416;DHT22;1721;51.238;9.562;2023-07-31T05:05:57;18.50;95.50
3416;DHT22;1721;51.238;9.562;2023-07-31T05:08:23;18.60;95.70
3416;DHT22;1721;51.238;9.562;2023-07-31T05:10:49;18.60;95.80
3416;DHT22;1721;51.238;9.562;2023-07-31T05:13:14;18.60;95.80
3416;DHT22;1721;51.238;9.562;2023-07-31T05:15:41;18.60;95.80
3416;DHT22;1721;51.238;9.562;2023-07-31T05:18:06;18.70;96.00
3416;DHT22;1721;51.238;9.562;2023-07-31T05:20:32;18.80;95.60
3416;DHT22;1721;51.238;9.562;2023-07-31T05:22:58;18.80;95.70
3416;DHT22;1721;51.238;9.562;2023-07-31T05:25:23;18.90;95.70
3416;DHT22;1721;51.238;9.562;2023-07-31T05:27:49;18.80;95.80
3416;DHT22;1721;51.238;9.562;2023-07-31T05:30:14;18.80;95.70
3416;DHT22;1721;51.238;9.562;2023-07-31T05:32:40;18.80;96.00
3416;DHT22;1721;51.238;9.562;2023-07-31T05:35:06;18.70;96.20
3416;DHT22;1721;51.238;9.562;2023-07-31T05:37:31;18.70;96.40
3416;DHT22;1721;51.238;9.562;2023-07-31T05:39:57;18.70;96.30
3416;DHT22;1721;51.238;9.562;2023-07-31T05:42:22;18.70;96.70
3416;DHT22;1721;51.238;9.562;2023-07-31T05:44:48;18.60;96.50
3416;DHT22;1721;51.238;9.562;2023-07-31T05:47:14;18.60;96.90
3416;DHT22;1721;51.238;9.562;2023-07-31T05:49:39;18.70;96.90
3416;DHT22;1721;51.238;9.562;2023-07-31T05:52:05;18.70;96.90
3416;DHT22;1721;51.238;9.562;2023-07-31T05:54:32;18.70;97.10
3416;DHT22;1721;51.238;9.562;2023-07-31T05:56:57;18.50;97.30
3416;DHT22;1721;51.238;9.562;2023-07-31T05:59:23;18.60;97.40
3416;DHT22;1721;51.238;9.562;2023-07-31T06:01:49;18.70;97.30
3416;DHT22;1721;51.238;9.562;2023-07-31T06:04:14;18.80;97.40
3416;DHT22;1721;51.238;9.562;2023-07-31T06:06:40;18.70;97.20
3416;DHT22;1721;51.238;9.562;2023-07-31T06:09:05;18.60;97.70
3416;DHT22;1721;51.238;9.562;2023-07-31T06:11:32;18.60;97.50
3416;DHT22;1721;51.238;9.562;2023-07-31T06:13:57;18.70;97.80
3416;DHT22;1721;51.238;9.562;2023-07-31T06:16:23;18.60;97.90
3416;DHT22;1721;51.238;9.562;2023-07-31T06:18:48;18.60;97.90
3416;DHT22;1721;51.238;9.562;2023-07-31T06:21:14;18.60;98.20
3416;DHT22;1721;51.238;9.562;2023-07-31T06:23:40;18.70;98.20
3416;DHT22;1721;51.238;9.562;2023-07-31T06:26:05;18.70;98.20
3416;DHT22;1721;51.238;9.562;2023-07-31T06:28:31;18.70;98.00
3416;DHT22;1721;51.238;9.562;2023-07-31T06:31:00;18.60;98.00
3416;DHT22;1721;51.238;9.562;2023-07-31T06:33:27;18.70;98.30
3416;DHT22;1721;51.238;9.562;2023-07-31T06:35:53;18.70;98.30
3416;DHT22;1721;51.238;9.562;2023-07-31T06:38:25;18.70;98.50
3416;DHT22;1721;51.238;9.562;2023-07-31T06:40:51;18.60;98.40
3416;DHT22;1721;51.238;9.562;2023-07-31T06:43:17;18.50;98.80
3416;DHT22;1721;51.238;9.562;2023-07-31T06:45:42;18.40;99.00
3416;DHT22;1721;51.238;9.562;2023-07-31T06:48:08;18.40;98.80
3416;DHT22;1721;51.238;9.562;2023-07-31T06:50:34;18.50;98.90
3416;DHT22;1721;51.238;9.562;2023-07-31T06:52:59;18.60;98.90
3416;DHT22;1721;51.238;9.562;2023-07-31T06:55:25;18.60;98.90
3416;DHT22;1721;51.238;9.562;2023-07-31T06:57:53;18.50;99.20
3416;DHT22;1721;51.238;9.562;2023-07-31T07:00:19;18.40;99.50
3416;DHT22;1721;51.238;9.562;2023-07-31T07:02:45;18.40;99.60
3416;DHT22;1721;51.238;9.562;2023-07-31T07:05:14;18.40;99.90
3416;DHT22;1721;51.238;9.562;2023-07-31T07:07:40;18.50;99.90
3416;DHT22;1721;51.238;9.562;2023-07-31T07:10:06;18.60;99.90
3416;DHT22;1721;51.238;9.562;2023-07-31T07:12:32;18.70;99.90
3416;DHT22;1721;51.238;9.562;2023-07-31T07:14:59;18.60;99.90
3416;DHT22;1721;51.238;9.562;2023-07-31T07:17:25;18.60;99.90
3416;DHT22;1721;51.238;9.562;2023-07-31T07:19:51;18.80;99.90
3416;DHT22;1721;51.238;9.562;2023-07-31T07:22:17;19.10;99.90
3416;DHT22;1721;51.238;9.562;2023-07-31T07:24:42;19.40;99.90
3416;DHT22;1721;51.238;9.562;2023-07-31T07:27:08;19.50;99.80
3416;DHT22;1721;51.238;9.562;2023-07-31T07:29:34;19.80;99.60
3416;DHT22;1721;51.238;9.562;2023-07-31T07:32:00;19.90;99.10
3416;DHT22;1721;51.238;9.562;2023-07-31T07:34:26;20.00;99.10
3416;DHT22;1721;51.238;9.562;2023-07-31T07:36:53;20.00;98.70
3416;DHT22;1721;51.238;9.562;2023-07-31T07:39:18;20.00;98.30
3416;DHT22;1721;51.238;9.562;2023-07-31T07:41:44;19.80;98.30
3416;DHT22;1721;51.238;9.562;2023-07-31T07:44:09;19.80;98.10
3416;DHT22;1721;51.238;9.562;2023-07-31T07:46:35;19.90;98.50
3416;DHT22;1721;51.238;9.562;2023-07-31T07:49:00;19.90;98.50
3416;DHT22;1721;51.238;9.562;2023-07-31T07:51:26;19.90;98.40
3416;DHT22;1721;51.238;9.562;2023-07-31T07:53:52;19.90;98.10
3416;DHT22;1721;51.238;9.562;2023-07-31T07:56:17;19.80;98.10
3416;DHT22;1721;51.238;9.562;2023-07-31T07:58:43;19.80;98.30
3416;DHT22;1721;51.238;9.562;2023-07-31T08:01:08;19.80;98.60
3416;DHT22;1721;51.238;9.562;2023-07-31T08:03:34;19.70;98.40
3416;DHT22;1721;51.238;9.562;2023-07-31T08:06:00;19.90;98.80
3416;DHT22;1721;51.238;9.562;2023-07-31T08:08:27;19.90;98.50
3416;DHT22;1721;51.238;9.562;2023-07-31T08:10:53;20.20;98.50
3416;DHT22;1721;51.238;9.562;2023-07-31T08:13:18;20.50;98.00
3416;DHT22;1721;51.238;9.562;2023-07-31T08:15:44;20.40;98.00
3416;DHT22;1721;51.238;9.562;2023-07-31T08:18:10;20.60;97.40
3416;DHT22;1721;51.238;9.562;2023-07-31T08:20:37;20.70;97.70
3416;DHT22;1721;51.238;9.562;2023-07-31T08:23:03;20.90;96.50
3416;DHT22;1721;51.238;9.562;2023-07-31T08:25:29;21.10;97.00
3416;DHT22;1721;51.238;9.562;2023-07-31T08:27:54;21.00;96.40
3416;DHT22;1721;51.238;9.562;2023-07-31T08:30:21;20.90;96.40
3416;DHT22;1721;51.238;9.562;2023-07-31T08:32:46;20.70;96.70
3416;DHT22;1721;51.238;9.562;2023-07-31T08:35:12;20.60;96.20
3416;DHT22;1721;51.238;9.562;2023-07-31T08:37:38;20.30;96.90
3416;DHT22;1721;51.238;9.562;2023-07-31T08:40:04;20.10;97.20
3416;DHT22;1721;51.238;9.562;2023-07-31T08:42:31;19.90;97.70
3416;DHT22;1721;51.238;9.562;2023-07-31T08:44:57;19.80;98.10
3416;DHT22;1721;51.238;9.562;2023-07-31T08:47:26;19.80;98.20
3416;DHT22;1721;51.238;9.562;2023-07-31T08:49:52;19.60;98.00
3416;DHT22;1721;51.238;9.562;2023-07-31T08:52:18;19.70;98.40
3416;DHT22;1721;51.238;9.562;2023-07-31T08:54:44;19.70;98.20
3416;DHT22;1721;51.238;9.562;2023-07-31T08:57:10;19.80;98.50
3416;DHT22;1721;51.238;9.562;2023-07-31T08:59:36;19.70;98.60
3416;DHT22;1721;51.238;9.562;2023-07-31T09:02:08;19.60;99.00
3416;DHT22;1721;51.238;9.562;2023-07-31T09:04:34;19.70;99.40
3416;DHT22;1721;51.238;9.562;2023-07-31T09:07:01;19.60;99.20
3416;DHT22;1721;51.238;9.562;2023-07-31T09:09:30;19.70;99.70
3416;DHT22;1721;51.238;9.562;2023-07-31T09:11:57;19.80;99.10
3416;DHT22;1721;51.238;9.562;2023-07-31T09:14:24;19.70;99.00
3416;DHT22;1721;51.238;9.562;2023-07-31T09:16:54;19.70;98.90
3416;DHT22;1721;51.238;9.562;2023-07-31T09:19:26;19.60;99.10
3416;DHT22;1721;51.238;9.562;2023-07-31T09:21:52;19.30;99.40
3416;DHT22;1721;51.238;9.562;2023-07-31T09:24:32;19.10;99.80
3416;DHT22;1721;51.238;9.562;2023-07-31T09:26:59;19.00;99.90
3416;DHT22;1721;51.238;9.562;2023-07-31T09:29:26;18.90;99.90
3416;DHT22;1721;51.238;9.562;2023-07-31T09:31:53;18.90;99.90
3416;DHT22;1721;51.238;9.562;2023-07-31T09:34:19;19.00;99.90
3416;DHT22;1721;51.238;9.562;2023-07-31T09:36:51;19.00;99.90
3416;DHT22;1721;51.238;9.562;2023-07-31T09:39:18;19.00;99.90
3416;DHT22;1721;51.238;9.562;2023-07-31T09:41:48;19.00;99.90
3416;DHT22;1721;51.238;9.562;2023-07-31T09:44:18;19.00;99.90
3416;DHT22;1721;51.238;9.562;2023-07-31T09:46:44;18.80;99.90
3416;DHT22;1721;51.238;9.562;2023-07-31T09:49:14;18.70;99.90
3416;DHT22;1721;51.238;9.562;2023-07-31T09:51:41;18.60;99.90
3416;DHT22;1721;51.238;9.562;2023-07-31T09:54:16;18.70;99.90
3416;DHT22;1721;51.238;9.562;2023-07-31T09:56:47;18.70;99.90
3416;DHT22;1721;51.238;9.562;2023-07-31T09:59:15;18.80;99.90
3416;DHT22;1721;51.238;9.562;2023-07-31T10:01:42;19.00;99.90
3416;DHT22;1721;51.238;9.562;2023-07-31T10:04:09;19.20;99.90
3416;DHT22;1721;51.238;9.562;2023-07-31T10:06:36;19.30;99.90
3416;DHT22;1721;51.238;9.562;2023-07-31T10:09:09;19.60;99.90
3416;DHT22;1721;51.238;9.562;2023-07-31T10:11:59;19.80;99.90
3416;DHT22;1721;51.238;9.562;2023-07-31T10:14:26;19.90;99.90
3416;DHT22;1721;51.238;9.562;2023-07-31T10:16:53;20.10;99.90
3416;DHT22;1721;51.238;9.562;2023-07-31T10:19:19;20.30;99.90
3416;DHT22;1721;51.238;9.562;2023-07-31T10:21:46;20.40;99.90
3416;DHT22;1721;51.238;9.562;2023-07-31T10:24:14;20.50;99.90
3416;DHT22;1721;51.238;9.562;2023-07-31T10:26:41;20.60;99.90
3416;DHT22;1721;51.238;9.562;2023-07-31T10:29:08;20.70;99.90
3416;DHT22;1721;51.238;9.562;2023-07-31T10:31:34;20.80;99.90
3416;DHT22;1721;51.238;9.562;2023-07-31T10:34:00;20.90;99.90
3416;DHT22;1721;51.238;9.562;2023-07-31T10:36:28;21.00;99.60
3416;DHT22;1721;51.238;9.562;2023-07-31T10:38:55;21.00;99.20
3416;DHT22;1721;51.238;9.562;2023-07-31T10:41:29;21.10;98.90
3416;DHT22;1721;51.238;9.562;2023-07-31T10:43:58;21.10;99.00
3416;DHT22;1721;51.238;9.562;2023-07-31T10:46:23;21.00;98.60
3416;DHT22;1721;51.238;9.562;2023-07-31T10:49:00;21.20;99.60
3416;DHT22;1721;51.238;9.562;2023-07-31T10:51:35;21.30;98.70
3416;DHT22;1721;51.238;9.562;2023-07-31T10:54:12;21.40;98.40
3416;DHT22;1721;51.238;9.562;2023-07-31T10:56:38;21.30;97.70
3416;DHT22;1721;51.238;9.562;2023-07-31T10:59:05;21.20;97.50
3416;DHT22;1721;51.238;9.562;2023-07-31T11:04:22;20.70;98.10
3416;DHT22;1721;51.238;9.562;2023-07-31T11:07:01;20.60;97.60
3416;DHT22;1721;51.238;9.562;2023-07-31T11:09:31;20.40;98.00
3416;DHT22;1721;51.238;9.562;2023-07-31T11:11:59;20.30;98.00
3416;DHT22;1721;51.238;9.562;2023-07-31T11:14:24;20.40;98.00
3416;DHT22;1721;51.238;9.562;2023-07-31T11:16:50;20.50;98.40
3416;DHT22;1721;51.238;9.562;2023-07-31T11:19:24;20.40;98.20
3416;DHT22;1721;51.238;9.562;2023-07-31T11:21:53;20.30;98.30
3416;DHT22;1721;51.238;9.562;2023-07-31T11:24:19;20.40;98.10
3416;DHT22;1721;51.238;9.562;2023-07-31T11:26:51;20.60;98.30
3416;DHT22;1721;51.238;9.562;2023-07-31T11:29:18;20.50;98.20
3416;DHT22;1721;51.238;9.562;2023-07-31T11:31:45;20.60;98.50
3416;DHT22;1721;51.238;9.562;2023-07-31T11:34:11;20.80;98.40
3416;DHT22;1721;51.238;9.562;2023-07-31T11:36:37;20.90;98.00
3416;DHT22;1721;51.238;9.562;2023-07-31T11:39:08;20.80;97.30
3416;DHT22;1721;51.238;9.562;2023-07-31T11:41:33;20.90;97.00
3416;DHT22;1721;51.238;9.562;2023-07-31T11:44:02;20.80;96.90
3416;DHT22;1721;51.238;9.562;2023-07-31T11:46:30;20.90;97.30
3416;DHT22;1721;51.238;9.562;2023-07-31T11:49:00;21.20;97.10
3416;DHT22;1721;51.238;9.562;2023-07-31T11:51:26;21.40;96.80
3416;DHT22;1721;51.238;9.562;2023-07-31T11:53:57;21.50;96.60
3416;DHT22;1721;51.238;9.562;2023-07-31T11:56:24;21.60;96.90
3416;DHT22;1721;51.238;9.562;2023-07-31T11:58:57;21.50;95.80
3416;DHT22;1721;51.238;9.562;2023-07-31T12:01:24;21.50;96.00
3416;DHT22;1721;51.238;9.562;2023-07-31T12:03:50;21.40;96.00
3416;DHT22;1721;51.238;9.562;2023-07-31T12:06:16;21.30;95.60
3416;DHT22;1721;51.238;9.562;2023-07-31T12:08:42;21.20;95.70
3416;DHT22;1721;51.238;9.562;2023-07-31T12:11:09;20.90;95.80
3416;DHT22;1721;51.238;9.562;2023-07-31T12:13:37;21.00;95.80
3416;DHT22;1721;51.238;9.562;2023-07-31T12:16:03;21.00;95.70
3416;DHT22;1721;51.238;9.562;2023-07-31T12:18:33;21.10;96.20
3416;DHT22;1721;51.238;9.562;2023-07-31T12:21:01;20.90;95.70
3416;DHT22;1721;51.238;9.562;2023-07-31T12:23:28;20.70;96.00
3416;DHT22;1721;51.238;9.562;2023-07-31T12:28:37;20.30;97.00
3416;DHT22;1721;51.238;9.562;2023-07-31T12:31:04;20.30;97.60
3416;DHT22;1721;51.238;9.562;2023-07-31T12:33:32;20.40;97.30
3416;DHT22;1721;51.238;9.562;2023-07-31T12:36:00;20.10;97.70
3416;DHT22;1721;51.238;9.562;2023-07-31T12:38:26;20.00;97.60
3416;DHT22;1721;51.238;9.562;2023-07-31T12:40:51;19.90;97.90
3416;DHT22;1721;51.238;9.562;2023-07-31T12:43:17;20.00;98.10
3416;DHT22;1721;51.238;9.562;2023-07-31T12:45:42;20.00;97.80
3416;DHT22;1721;51.238;9.562;2023-07-31T12:48:08;20.20;97.80
3416;DHT22;1721;51.238;9.562;2023-07-31T12:50:33;20.20;97.80
3416;DHT22;1721;51.238;9.562;2023-07-31T12:53:02;20.20;97.60
3416;DHT22;1721;51.238;9.562;2023-07-31T12:55:29;20.30;97.60
3416;DHT22;1721;51.238;9.562;2023-07-31T12:57:55;20.20;97.40
3416;DHT22;1721;51.238;9.562;2023-07-31T13:00:21;20.30;97.50
3416;DHT22;1721;51.238;9.562;2023-07-31T13:02:46;20.30;97.40
3416;DHT22;1721;51.238;9.562;2023-07-31T13:05:12;20.40;97.60
3416;DHT22;1721;51.238;9.562;2023-07-31T13:07:38;20.40;97.10
3416;DHT22;1721;51.238;9.562;2023-07-31T13:10:05;20.40;97.30
3416;DHT22;1721;51.238;9.562;2023-07-31T13:12:30;20.50;97.30
3416;DHT22;1721;51.238;9.562;2023-07-31T13:14:56;20.50;97.30
3416;DHT22;1721;51.238;9.562;2023-07-31T13:17:22;20.60;97.30
3416;DHT22;1721;51.238;9.562;2023-07-31T13:19:47;20.70;97.10
3416;DHT22;1721;51.238;9.562;2023-07-31T13:22:13;20.90;97.20
3416;DHT22;1721;51.238;9.562;2023-07-31T13:24:38;21.10;96.90
3416;DHT22;1721;51.238;9.562;2023-07-31T13:27:04;21.00;96.40
3416;DHT22;1721;51.238;9.562;2023-07-31T13:29:29;20.90;96.30
3416;DHT22;1721;51.238;9.562;2023-07-31T13:31:55;21.00;96.60
3416;DHT22;1721;51.238;9.562;2023-07-31T13:34:21;21.00;96.10
3416;DHT22;1721;51.238;9.562;2023-07-31T13:36:46;21.00;96.10
3416;DHT22;1721;51.238;9.562;2023-07-31T13:39:12;21.30;96.20
3416;DHT22;1721;51.238;9.562;2023-07-31T13:41:38;21.50;95.80
3416;DHT22;1721;51.238;9.562;2023-07-31T13:44:03;21.60;95.50
3416;DHT22;1721;51.238;9.562;2023-07-31T13:46:29;21.50;94.80
3416;DHT22;1721;51.238;9.562;2023-07-31T13:48:54;21.50;94.70
3416;DHT22;1721;51.238;9.562;2023-07-31T13:51:21;21.30;94.70
3416;DHT22;1721;51.238;9.562;2023-07-31T13:53:47;21.40;95.20
3416;DHT22;1721;51.238;9.562;2023-07-31T13:56:13;21.40;95.10
3416;DHT22;1721;51.238;9.562;2023-07-31T13:58:38;21.40;94.70
3416;DHT22;1721;51.238;9.562;2023-07-31T14:01:04;21.20;94.50
3416;DHT22;1721;51.238;9.562;2023-07-31T14:03:30;21.10;95.10
3416;DHT22;1721;51.238;9.562;2023-07-31T14:05:56;21.20;95.10
3416;DHT22;1721;51.238;9.562;2023-07-31T14:08:22;21.40;95.10
3416;DHT22;1721;51.238;9.562;2023-07-31T14:10:47;21.50;95.10
3416;DHT22;1721;51.238;9.562;2023-07-31T14:13:13;21.50;95.10
3416;DHT22;1721;51.238;9.562;2023-07-31T14:15:42;21.70;94.90
3416;DHT22;1721;51.238;9.562;2023-07-31T14:18:07;21.80;95.10
3416;DHT22;1721;51.238;9.562;2023-07-31T14:20:33;21.90;94.90
3416;DHT22;1721;51.238;9.562;2023-07-31T14:22:58;22.10;94.60
3416;DHT22;1721;51.238;9.562;2023-07-31T14:25:24;22.20;94.70
3416;DHT22;1721;51.238;9.562;2023-07-31T14:27:50;22.40;94.50
3416;DHT22;1721;51.238;9.562;2023-07-31T14:30:15;22.40;94.60
3416;DHT22;1721;51.238;9.562;2023-07-31T14:32:42;22.80;94.60
3416;DHT22;1721;51.238;9.562;2023-07-31T14:35:08;22.90;93.90
3416;DHT22;1721;51.238;9.562;2023-07-31T14:37:40;22.90;93.50
3416;DHT22;1721;51.238;9.562;2023-07-31T14:40:08;22.90;93.70
3416;DHT22;1721;51.238;9.562;2023-07-31T14:42:34;22.70;93.90
3416;DHT22;1721;51.238;9.562;2023-07-31T14:45:00;22.60;94.00
3416;DHT22;1721;51.238;9.562;2023-07-31T14:47:26;22.80;94.00
3416;DHT22;1721;51.238;9.562;2023-07-31T14:49:51;22.80;94.10
3416;DHT22;1721;51.238;9.562;2023-07-31T14:52:17;22.70;93.50
3416;DHT22;1721;51.238;9.562;2023-07-31T14:54:42;22.60;94.00
3416;DHT22;1721;51.238;9.562;2023-07-31T14:57:08;22.50;94.00
3416;DHT22;1721;51.238;9.562;2023-07-31T14:59:34;22.50;93.90
3416;DHT22;1721;51.238;9.562;2023-07-31T15:01:59;22.30;94.20
3416;DHT22;1721;51.238;9.562;2023-07-31T15:04:25;22.30;94.00
3416;DHT22;1721;51.238;9.562;2023-07-31T15:06:51;22.30;94.30
3416;DHT22;1721;51.238;9.562;2023-07-31T15:09:17;22.40;94.40
3416;DHT22;1721;51.238;9.562;2023-07-31T15:11:43;22.30;93.70
3416;DHT22;1721;51.238;9.562;2023-07-31T15:14:09;22.30;94.20
3416;DHT22;1721;51.238;9.562;2023-07-31T15:16:35;22.30;94.30
3416;DHT22;1721;51.238;9.562;2023-07-31T15:19:00;22.20;93.90
3416;DHT22;1721;51.238;9.562;2023-07-31T15:21:26;22.10;93.80
3416;DHT22;1721;51.238;9.562;2023-07-31T15:23:52;22.10;94.10
3416;DHT22;1721;51.238;9.562;2023-07-31T15:26:17;22.00;94.30
3416;DHT22;1721;51.238;9.562;2023-07-31T15:28:49;22.00;94.30
3416;DHT22;1721;51.238;9.562;2023-07-31T15:31:14;22.10;94.30
3416;DHT22;1721;51.238;9.562;2023-07-31T15:33:40;22.10;94.20
3416;DHT22;1721;51.238;9.562;2023-07-31T15:36:06;22.20;94.20
3416;DHT22;1721;51.238;9.562;2023-07-31T15:38:32;22.10;94.00
3416;DHT22;1721;51.238;9.562;2023-07-31T15:40:57;22.10;94.40
3416;DHT22;1721;51.238;9.562;2023-07-31T15:43:23;22.00;94.40
3416;DHT22;1721;51.238;9.562;2023-07-31T15:45:49;22.10;94.30
3416;DHT22;1721;51.238;9.562;2023-07-31T15:48:14;22.10;94.20
3416;DHT22;1721;51.238;9.562;2023-07-31T15:50:40;22.20;94.60
3416;DHT22;1721;51.238;9.562;2023-07-31T15:53:06;22.20;94.60
3416;DHT22;1721;51.238;9.562;2023-07-31T15:55:31;22.20;94.30
3416;DHT22;1721;51.238;9.562;2023-07-31T15:57:57;22.40;94.20
3416;DHT22;1721;51.238;9.562;2023-07-31T16:00:22;22.60;94.20
3416;DHT22;1721;51.238;9.562;2023-07-31T16:02:48;22.60;94.00
3416;DHT22;1721;51.238;9.562;2023-07-31T16:05:14;22.50;94.00